createdAt,value
2018-04-13T00:00:40.536Z,16.03
2018-04-13T00:03:11.566Z,15.97
2018-04-13T00:05:42.587Z,15.93
2018-04-13T00:08:13.601Z,15.90
2018-04-13T00:10:44.620Z,15.90
2018-04-13T00:13:15.629Z,15.90
2018-04-13T00:15:46.672Z,15.92
2018-04-13T00:18:17.640Z,15.95
2018-04-13T00:20:48.693Z,15.97
2018-04-13T00:23:19.712Z,15.95
2018-04-13T00:25:50.702Z,15.95
2018-04-13T00:28:21.823Z,15.92
2018-04-13T00:30:52.829Z,15.88
2018-04-13T00:33:23.823Z,15.86
2018-04-13T00:35:54.775Z,15.83
2018-04-13T00:38:25.776Z,15.77
2018-04-13T00:40:56.776Z,15.70
2018-04-13T00:43:27.779Z,15.67
2018-04-13T00:45:58.796Z,15.67
2018-04-13T00:48:29.844Z,15.68
2018-04-13T00:51:00.844Z,15.67
2018-04-13T00:53:31.802Z,15.64
2018-04-13T00:56:02.850Z,15.63
2018-04-13T00:58:33.867Z,15.66
2018-04-13T01:01:04.864Z,15.61
2018-04-13T01:03:35.811Z,15.55
2018-04-13T01:06:06.773Z,15.53
2018-04-13T01:08:37.816Z,15.56
2018-04-13T01:11:08.800Z,15.56
2018-04-13T01:13:39.800Z,15.63
2018-04-13T01:16:10.807Z,15.69
2018-04-13T01:18:41.808Z,15.74
2018-04-13T01:21:12.812Z,15.81
2018-04-13T01:23:43.821Z,15.84
2018-04-13T01:26:14.860Z,15.88
2018-04-13T01:28:45.898Z,15.86
2018-04-13T01:31:16.870Z,15.87
2018-04-13T01:33:47.851Z,15.89
2018-04-13T01:36:18.861Z,15.92
2018-04-13T01:38:49.890Z,15.94
2018-04-13T01:41:20.878Z,15.92
2018-04-13T01:43:51.852Z,15.92
2018-04-13T01:46:22.864Z,15.94
2018-04-13T01:48:53.884Z,15.95
2018-04-13T01:51:24.863Z,15.94
2018-04-13T01:53:55.830Z,15.93
2018-04-13T01:56:26.855Z,15.90
2018-04-13T01:58:57.849Z,15.89
2018-04-13T02:01:28.838Z,15.91
2018-04-13T02:03:59.828Z,15.93
2018-04-13T02:06:30.837Z,15.93
2018-04-13T02:09:01.871Z,15.90
2018-04-13T02:11:32.881Z,15.87
2018-04-13T02:14:03.889Z,15.84
2018-04-13T02:16:34.901Z,15.89
2018-04-13T02:19:05.961Z,15.96
2018-04-13T02:21:36.983Z,16.04
2018-04-13T02:24:08.005Z,16.08
2018-04-13T02:26:38.979Z,16.08
2018-04-13T02:29:09.989Z,16.05
2018-04-13T02:31:40.969Z,16.00
2018-04-13T02:34:11.989Z,15.99
2018-04-13T02:36:43.020Z,15.99
2018-04-13T02:39:14.033Z,15.99
2018-04-13T02:41:45.054Z,15.99
2018-04-13T02:44:16.083Z,15.99
2018-04-13T02:46:47.099Z,15.97
2018-04-13T02:49:18.112Z,15.97
2018-04-13T02:51:49.119Z,15.99
2018-04-13T02:54:20.122Z,16.05
2018-04-13T02:56:51.069Z,16.11
2018-04-13T02:59:22.099Z,16.14
2018-04-13T03:01:53.114Z,16.13
2018-04-13T03:04:24.118Z,16.10
2018-04-13T03:06:55.112Z,16.12
2018-04-13T03:09:26.096Z,16.12
2018-04-13T03:11:57.096Z,16.10
2018-04-13T03:14:28.137Z,16.09
2018-04-13T03:16:59.132Z,16.12
2018-04-13T03:19:30.142Z,16.14
2018-04-13T03:22:08.742Z,16.17
2018-04-13T03:24:39.697Z,16.18
2018-04-13T03:27:10.724Z,16.16
2018-04-13T03:29:41.729Z,16.15
2018-04-13T03:32:12.735Z,16.15
2018-04-13T03:34:43.755Z,16.14
2018-04-13T03:37:14.775Z,16.13
2018-04-13T03:39:45.895Z,16.11
2018-04-13T03:42:16.941Z,16.07
2018-04-13T03:44:47.971Z,16.02
2018-04-13T03:47:18.985Z,15.98
2018-04-13T03:49:49.981Z,15.95
2018-04-13T03:52:21.002Z,15.97
2018-04-13T03:54:51.971Z,15.99
2018-04-13T03:57:23.127Z,15.94
2018-04-13T03:59:54.143Z,15.86
2018-04-13T04:02:25.156Z,15.75
2018-04-13T04:04:56.110Z,15.66
2018-04-13T04:07:27.075Z,15.64
2018-04-13T04:09:58.088Z,15.62
2018-04-13T04:12:29.138Z,15.64
2018-04-13T04:15:00.146Z,15.66
2018-04-13T04:17:31.119Z,15.61
2018-04-13T04:20:14.442Z,15.54
2018-04-13T04:22:57.623Z,15.44
2018-04-13T04:25:40.981Z,15.31
2018-04-13T04:28:11.985Z,15.25
2018-04-13T04:30:43.036Z,15.23
2018-04-13T04:33:14.007Z,15.28
2018-04-13T04:35:45.035Z,15.33
2018-04-13T04:38:16.070Z,15.30
2018-04-13T04:40:47.120Z,15.22
2018-04-13T04:43:18.128Z,15.23
2018-04-13T04:45:49.128Z,15.28
2018-04-13T04:48:20.076Z,15.30
2018-04-13T04:50:51.049Z,15.35
2018-04-13T04:53:22.018Z,15.38
2018-04-13T04:55:53.025Z,15.39
2018-04-13T04:58:24.112Z,15.36
2018-04-13T05:00:55.105Z,15.30
2018-04-13T05:03:26.180Z,15.31
2018-04-13T05:05:57.200Z,15.34
2018-04-13T05:08:28.208Z,15.39
2018-04-13T05:10:59.162Z,15.43
2018-04-13T05:13:30.167Z,15.41
2018-04-13T05:16:01.207Z,15.36
2018-04-13T05:18:32.199Z,15.32
2018-04-13T05:21:03.186Z,15.25
2018-04-13T05:23:34.202Z,15.27
2018-04-13T05:26:05.204Z,15.21
2018-04-13T05:28:36.172Z,15.22
2018-04-13T05:31:07.164Z,15.36
2018-04-13T05:33:38.196Z,15.52
2018-04-13T05:36:09.228Z,15.56
2018-04-13T05:38:40.239Z,15.61
2018-04-13T05:41:11.220Z,15.67
2018-04-13T05:43:42.246Z,15.78
2018-04-13T05:46:13.272Z,15.78
2018-04-13T05:48:44.243Z,15.88
2018-04-13T05:51:15.268Z,16.00
2018-04-13T05:53:46.312Z,16.07
2018-04-13T05:56:17.318Z,16.14
2018-04-13T05:58:48.281Z,16.20
2018-04-13T06:01:19.298Z,16.24
2018-04-13T06:03:50.312Z,16.33
2018-04-13T06:06:21.382Z,16.40
2018-04-13T06:08:52.347Z,16.46
2018-04-13T06:11:23.429Z,16.54
2018-04-13T06:13:54.407Z,16.54
2018-04-13T06:16:25.440Z,16.54
2018-04-13T06:18:56.422Z,16.48
2018-04-13T06:21:27.446Z,16.45
2018-04-13T06:23:58.456Z,16.43
2018-04-13T06:26:29.482Z,16.45
2018-04-13T06:29:00.511Z,16.45
2018-04-13T06:31:31.518Z,16.43
2018-04-13T06:34:02.568Z,16.43
2018-04-13T06:36:33.611Z,16.42
2018-04-13T06:39:04.639Z,16.37
2018-04-13T06:41:35.760Z,16.38
2018-04-13T06:44:06.781Z,16.43
2018-04-13T06:46:37.796Z,16.46
2018-04-13T06:49:08.807Z,16.49
2018-04-13T06:51:39.819Z,16.59
2018-04-13T06:54:10.819Z,16.67
2018-04-13T06:56:41.855Z,16.70
2018-04-13T06:59:12.833Z,16.79
2018-04-13T07:01:43.908Z,16.97
2018-04-13T07:04:14.957Z,17.17
2018-04-13T07:06:45.996Z,17.43
2018-04-13T07:09:17.016Z,17.66
2018-04-13T07:11:48.035Z,17.94
2018-04-13T07:14:19.023Z,18.20
2018-04-13T07:16:50.042Z,18.42
2018-04-13T07:19:21.106Z,18.58
2018-04-13T07:21:52.060Z,18.87
2018-04-13T07:24:23.104Z,19.06
2018-04-13T07:26:54.085Z,19.62
2018-04-13T07:29:25.121Z,20.40
2018-04-13T07:31:56.084Z,21.36
2018-04-13T07:34:27.090Z,21.96
2018-04-13T07:36:58.100Z,22.70
2018-04-13T07:39:29.104Z,23.51
2018-04-13T07:42:00.062Z,24.37
2018-04-13T07:44:31.081Z,25.86
2018-04-13T07:47:02.049Z,28.65
2018-04-13T07:49:33.104Z,31.68
2018-04-13T07:52:04.094Z,34.66
2018-04-13T07:54:35.111Z,37.70
2018-04-13T07:57:06.121Z,39.87
2018-04-13T07:59:37.156Z,42.94
2018-04-13T08:02:08.381Z,43.05
2018-04-13T08:04:39.385Z,43.30
2018-04-13T08:07:10.355Z,44.65
2018-04-13T08:09:41.496Z,45.12
2018-04-13T08:12:12.379Z,47.26
2018-04-13T08:14:43.390Z,48.82
2018-04-13T08:17:14.383Z,48.41
2018-04-13T08:19:45.566Z,44.58
2018-04-13T08:22:16.628Z,41.30
2018-04-13T08:24:47.670Z,37.95
2018-04-13T08:27:18.642Z,35.80
2018-04-13T08:29:49.753Z,34.35
2018-04-13T08:32:20.705Z,33.39
2018-04-13T08:34:51.714Z,32.13
2018-04-13T08:37:22.775Z,31.82
2018-04-13T08:39:53.840Z,34.87
2018-04-13T08:42:24.834Z,35.94
2018-04-13T08:44:55.889Z,34.09
2018-04-13T08:47:26.868Z,31.44
2018-04-13T08:49:57.892Z,29.75
2018-04-13T08:52:28.891Z,28.95
2018-04-13T08:54:59.914Z,28.70
2018-04-13T08:57:30.926Z,28.80
2018-04-13T09:00:01.934Z,29.75
2018-04-13T09:02:32.973Z,30.72
2018-04-13T09:05:03.973Z,31.55
2018-04-13T09:07:35.073Z,32.17
2018-04-13T09:10:06.102Z,33.03
2018-04-13T09:12:37.140Z,34.31
2018-04-13T09:15:08.120Z,37.05
2018-04-13T09:17:39.119Z,38.62
2018-04-13T09:20:10.124Z,38.92
2018-04-13T09:22:41.104Z,38.36
2018-04-13T09:25:12.138Z,35.69
2018-04-13T09:27:43.148Z,34.00
2018-04-13T09:30:14.154Z,33.13
2018-04-13T09:32:45.157Z,32.52
2018-04-13T09:35:16.191Z,31.30
2018-04-13T09:37:47.188Z,29.37
2018-04-13T09:40:18.195Z,27.64
2018-04-13T09:42:49.177Z,26.58
2018-04-13T09:45:20.229Z,25.93
2018-04-13T09:47:51.196Z,24.78
2018-04-13T09:50:22.207Z,24.32
2018-04-13T09:52:53.146Z,24.24
2018-04-13T09:55:24.222Z,24.60
2018-04-13T09:57:55.163Z,25.09
2018-04-13T10:00:29.273Z,27.60
2018-04-13T10:03:03.151Z,30.85
2018-04-13T10:05:34.158Z,32.17
2018-04-13T10:08:05.216Z,32.19
2018-04-13T10:10:36.158Z,31.02
2018-04-13T10:13:07.199Z,29.51
2018-04-13T10:15:38.233Z,28.39
2018-04-13T10:18:09.174Z,27.74
2018-04-13T10:20:40.242Z,27.67
2018-04-13T10:23:11.264Z,27.10
2018-04-13T10:25:42.270Z,26.54
2018-04-13T10:28:13.256Z,25.98
2018-04-13T10:30:44.352Z,25.49
2018-04-13T10:33:15.360Z,25.17
2018-04-13T10:35:46.382Z,25.08
2018-04-13T10:38:17.346Z,25.04
2018-04-13T10:40:48.374Z,24.83
2018-04-13T10:43:19.358Z,24.40
2018-04-13T10:45:50.364Z,24.35
2018-04-13T10:48:21.374Z,24.21
2018-04-13T10:50:52.378Z,24.06
2018-04-13T10:53:23.411Z,24.13
2018-04-13T10:55:54.451Z,24.14
2018-04-13T10:58:25.438Z,24.50
2018-04-13T11:00:56.479Z,24.49
2018-04-13T11:03:27.577Z,24.36
2018-04-13T11:05:58.584Z,24.16
2018-04-13T11:08:29.559Z,24.56
2018-04-13T11:11:00.645Z,24.88
2018-04-13T11:13:31.658Z,25.32
2018-04-13T11:16:02.675Z,26.24
2018-04-13T11:18:34.624Z,26.69
2018-04-13T11:21:05.614Z,26.76
2018-04-13T11:23:36.624Z,27.06
2018-04-13T11:26:07.640Z,26.44
2018-04-13T11:28:38.622Z,26.01
2018-04-13T11:31:09.699Z,25.27
2018-04-13T11:33:40.655Z,24.91
2018-04-13T11:36:11.735Z,24.57
2018-04-13T11:38:42.726Z,24.27
2018-04-13T11:41:13.731Z,24.32
2018-04-13T11:43:44.692Z,24.14
2018-04-13T11:46:15.779Z,24.13
2018-04-13T11:48:46.822Z,23.69
2018-04-13T11:51:17.800Z,23.70
2018-04-13T11:53:48.794Z,23.51
2018-04-13T11:56:19.771Z,23.39
2018-04-13T11:58:50.791Z,23.53
2018-04-13T12:01:21.840Z,23.34
2018-04-13T12:03:52.874Z,23.34
2018-04-13T12:06:23.867Z,23.19
2018-04-13T12:08:54.880Z,23.37
2018-04-13T12:11:25.883Z,23.32
2018-04-13T12:13:56.897Z,23.20
2018-04-13T12:16:27.895Z,23.53
2018-04-13T12:18:58.901Z,24.02
2018-04-13T12:21:29.946Z,24.27
2018-04-13T12:24:00.889Z,24.09
2018-04-13T12:26:31.921Z,24.54
2018-04-13T12:29:02.896Z,24.45
2018-04-13T12:31:33.906Z,24.10
2018-04-13T12:34:04.973Z,23.97
2018-04-13T12:36:35.949Z,24.21
2018-04-13T12:39:06.970Z,24.34
2018-04-13T12:41:37.927Z,24.80
2018-04-13T12:44:08.951Z,24.75
2018-04-13T12:46:39.962Z,24.83
2018-04-13T12:49:10.954Z,24.71
2018-04-13T12:51:41.947Z,24.26
2018-04-13T12:54:13.011Z,23.69
2018-04-13T12:56:44.039Z,23.64
2018-04-13T12:59:15.042Z,23.87
2018-04-13T13:01:46.047Z,24.22
2018-04-13T13:04:17.156Z,24.93
2018-04-13T13:06:48.140Z,25.05
2018-04-13T13:09:26.066Z,25.48
2018-04-13T13:11:57.036Z,26.03
2018-04-13T13:14:28.056Z,26.70
2018-04-13T13:16:59.719Z,26.57
2018-04-13T13:19:30.725Z,26.52
2018-04-13T13:22:01.726Z,26.32
2018-04-13T13:24:32.741Z,26.25
2018-04-13T13:27:03.712Z,25.65
2018-04-13T13:29:34.733Z,24.97
2018-04-13T13:32:05.710Z,24.11
2018-04-13T13:34:36.710Z,23.16
2018-04-13T13:37:07.753Z,22.15
2018-04-13T13:39:38.727Z,21.35
2018-04-13T13:42:09.772Z,20.39
2018-04-13T13:44:40.743Z,19.23
2018-04-13T13:47:11.728Z,18.28
2018-04-13T13:49:42.742Z,17.52
2018-04-13T13:52:13.816Z,17.07
2018-04-13T13:54:44.903Z,17.00
2018-04-13T13:57:15.911Z,16.80
2018-04-13T13:59:46.958Z,16.46
2018-04-13T14:02:17.987Z,16.31
2018-04-13T14:04:48.967Z,16.22
2018-04-13T14:07:19.977Z,16.25
2018-04-13T14:09:50.982Z,16.21
2018-04-13T14:12:22.032Z,16.09
2018-04-13T14:14:53.059Z,15.96
2018-04-13T14:17:24.014Z,15.92
2018-04-13T14:19:55.050Z,15.75
2018-04-13T14:22:26.044Z,15.49
2018-04-13T14:24:57.088Z,15.48
2018-04-13T14:27:28.090Z,15.52
2018-04-13T14:29:59.147Z,15.45
2018-04-13T14:32:30.106Z,15.53
2018-04-13T14:35:01.122Z,15.68
2018-04-13T14:37:32.111Z,15.71
2018-04-13T14:40:03.147Z,15.80
2018-04-13T14:42:34.167Z,15.80
2018-04-13T14:45:05.174Z,15.73
2018-04-13T14:47:36.205Z,15.80
2018-04-13T14:50:07.215Z,15.97
2018-04-13T14:52:38.288Z,16.17
2018-04-13T14:55:09.290Z,16.32
2018-04-13T14:57:40.242Z,16.37
2018-04-13T15:00:11.268Z,16.32
2018-04-13T15:02:42.287Z,16.39
2018-04-13T15:05:13.346Z,16.47
2018-04-13T15:07:44.370Z,16.49
2018-04-13T15:10:15.451Z,16.49
2018-04-13T15:12:46.467Z,16.53
2018-04-13T15:15:17.498Z,16.48
2018-04-13T15:17:48.484Z,16.50
2018-04-13T15:20:19.527Z,16.57
2018-04-13T15:22:50.516Z,16.59
2018-04-13T15:25:21.591Z,16.49
2018-04-13T15:27:52.631Z,16.50
2018-04-13T15:30:23.575Z,16.55
2018-04-13T15:32:54.592Z,16.51
2018-04-13T15:35:25.665Z,16.55
2018-04-13T15:37:56.626Z,16.67
2018-04-13T15:40:27.656Z,16.58
2018-04-13T15:42:58.638Z,16.68
2018-04-13T15:45:29.623Z,16.88
2018-04-13T15:48:00.618Z,17.05
2018-04-13T15:50:31.620Z,17.12
2018-04-13T15:53:02.662Z,17.13
2018-04-13T15:55:33.705Z,16.99
2018-04-13T15:58:04.747Z,16.91
2018-04-13T16:00:35.782Z,17.12
2018-04-13T16:03:06.754Z,17.38
2018-04-13T16:05:37.738Z,17.53
2018-04-13T16:08:08.808Z,17.61
2018-04-13T16:10:40.356Z,17.86
2018-04-13T16:13:11.404Z,18.32
2018-04-13T16:15:42.405Z,18.40
2018-04-13T16:18:13.461Z,18.26
2018-04-13T16:20:44.426Z,18.16
2018-04-13T16:23:15.496Z,17.93
2018-04-13T16:25:46.508Z,17.66
2018-04-13T16:28:17.524Z,17.43
2018-04-13T16:30:48.545Z,17.23
2018-04-13T16:33:19.605Z,17.12
2018-04-13T16:35:50.594Z,16.87
2018-04-13T16:38:21.636Z,16.73
2018-04-13T16:40:52.611Z,16.43
2018-04-13T16:43:23.729Z,16.33
2018-04-13T16:45:54.754Z,16.23
2018-04-13T16:48:25.748Z,16.18
2018-04-13T16:50:56.726Z,16.09
2018-04-13T16:53:27.782Z,15.98
2018-04-13T16:56:00.760Z,15.89
2018-04-13T16:58:34.539Z,15.84
2018-04-13T17:01:08.065Z,15.71
2018-04-13T17:03:41.813Z,15.67
2018-04-13T17:06:14.954Z,15.59
2018-04-13T17:08:48.233Z,15.51
2018-04-13T17:11:21.905Z,15.52
2018-04-13T17:13:55.048Z,15.45
2018-04-13T17:16:31.190Z,15.27
2018-04-13T17:19:04.322Z,15.14
2018-04-13T17:21:36.230Z,15.03
2018-04-13T17:24:09.212Z,14.97
2018-04-13T17:26:42.159Z,14.93
2018-04-13T17:29:15.436Z,14.86
2018-04-13T17:31:49.135Z,14.79
2018-04-13T17:34:21.740Z,14.67
2018-04-13T17:36:54.708Z,14.59
2018-04-13T17:39:27.536Z,14.51
2018-04-13T17:42:00.410Z,14.41
2018-04-13T17:44:33.502Z,14.36
2018-04-13T17:47:06.401Z,14.23
2018-04-13T17:49:40.552Z,14.17
2018-04-13T17:52:14.731Z,14.10
2018-04-13T17:54:47.991Z,14.04
2018-04-13T17:57:21.255Z,13.98
2018-04-13T17:59:55.253Z,13.93
2018-04-13T18:02:28.138Z,13.87
2018-04-13T18:04:59.179Z,13.78
2018-04-13T18:07:32.290Z,13.72
2018-04-13T18:10:05.577Z,13.67
2018-04-13T18:12:38.780Z,13.62
2018-04-13T18:15:11.787Z,13.56
2018-04-13T18:17:44.957Z,13.49
2018-04-13T18:20:19.527Z,13.46
2018-04-13T18:22:53.743Z,13.42
2018-04-13T18:25:26.835Z,13.38
2018-04-13T18:28:00.103Z,13.35
2018-04-13T18:30:33.748Z,13.32
2018-04-13T18:33:07.871Z,13.30
2018-04-13T18:35:41.588Z,13.27
2018-04-13T18:38:15.076Z,13.25
2018-04-13T18:40:47.848Z,13.23
2018-04-13T18:43:18.886Z,13.19
2018-04-13T18:45:49.870Z,13.16
2018-04-13T18:48:21.270Z,13.11
2018-04-13T18:50:52.359Z,13.05
2018-04-13T18:53:23.330Z,12.99
2018-04-13T18:55:54.633Z,12.94
2018-04-13T18:58:28.754Z,12.89
2018-04-13T19:01:02.012Z,12.85
2018-04-13T19:03:34.963Z,12.82
2018-04-13T19:06:07.686Z,12.81
2018-04-13T19:08:40.866Z,12.79
2018-04-13T19:11:13.284Z,12.78
2018-04-13T19:13:46.617Z,12.76
2018-04-13T19:16:19.550Z,12.73
2018-04-13T19:18:52.646Z,12.72
2018-04-13T19:21:25.213Z,12.70
2018-04-13T19:23:58.209Z,12.70
2018-04-13T19:26:31.162Z,12.68
2018-04-13T19:29:04.939Z,12.65
2018-04-13T19:31:37.895Z,12.59
2018-04-13T19:34:10.678Z,12.55
2018-04-13T19:36:44.371Z,12.51
2018-04-13T19:39:16.788Z,12.50
2018-04-13T19:41:50.926Z,12.50
2018-04-13T19:44:24.161Z,12.50
2018-04-13T19:46:57.296Z,12.51
2018-04-13T19:49:31.527Z,12.48
2018-04-13T19:52:04.570Z,12.45
2018-04-13T19:54:35.808Z,12.41
2018-04-13T19:57:07.016Z,12.41
2018-04-13T19:59:38.180Z,12.40
2018-04-13T20:02:09.368Z,12.39
2018-04-13T20:04:40.542Z,12.35
2018-04-13T20:07:11.708Z,12.34
2018-04-13T20:09:42.889Z,12.34
2018-04-13T20:12:14.085Z,12.32
2018-04-13T20:14:45.209Z,12.32
2018-04-13T20:17:16.249Z,12.37
2018-04-13T20:19:47.427Z,12.37
2018-04-13T20:22:18.602Z,12.35
2018-04-13T20:24:49.740Z,12.34
2018-04-13T20:27:20.888Z,12.32
2018-04-13T20:29:52.158Z,12.30
2018-04-13T20:32:23.317Z,12.28
2018-04-13T20:34:54.396Z,12.26
2018-04-13T20:37:26.098Z,12.25
2018-04-13T20:39:57.348Z,12.28
2018-04-13T20:42:28.577Z,12.32
2018-04-13T20:45:00.821Z,12.35
2018-04-13T20:47:31.965Z,12.35
2018-04-13T20:50:03.209Z,12.39
2018-04-13T20:52:34.409Z,12.48
2018-04-13T20:55:05.653Z,12.60
2018-04-13T20:57:36.822Z,12.74
2018-04-13T21:00:07.910Z,12.87
2018-04-13T21:02:39.170Z,12.95
2018-04-13T21:05:10.327Z,13.04
2018-04-13T21:07:41.473Z,13.05
2018-04-13T21:10:12.541Z,13.00
2018-04-13T21:12:43.772Z,12.92
2018-04-13T21:15:14.911Z,12.79
2018-04-13T21:17:46.115Z,12.72
2018-04-13T21:20:17.262Z,12.71
2018-04-13T21:22:48.297Z,12.70
2018-04-13T21:25:19.285Z,12.65
2018-04-13T21:27:50.265Z,12.61
2018-04-13T21:30:21.259Z,12.56
2018-04-13T21:32:52.318Z,12.46
2018-04-13T21:35:23.326Z,12.35
2018-04-13T21:37:54.311Z,12.23
2018-04-13T21:40:25.303Z,12.12
2018-04-13T21:42:56.310Z,12.02
2018-04-13T21:45:27.286Z,11.94
2018-04-13T21:47:58.278Z,11.92
2018-04-13T21:50:29.265Z,11.89
2018-04-13T21:53:00.303Z,11.82
2018-04-13T21:55:31.262Z,11.76
2018-04-13T21:58:02.238Z,11.70
2018-04-13T22:00:33.219Z,11.64
2018-04-13T22:03:04.258Z,11.61
2018-04-13T22:05:35.283Z,11.57
2018-04-13T22:08:06.279Z,11.53
2018-04-13T22:10:37.246Z,11.51
2018-04-13T22:13:20.733Z,11.49
2018-04-13T22:15:51.692Z,11.45
2018-04-13T22:18:22.692Z,11.47
2018-04-13T22:20:53.704Z,11.43
2018-04-13T22:23:24.739Z,11.38
2018-04-13T22:25:55.739Z,11.33
2018-04-13T22:28:26.710Z,11.27
2018-04-13T22:30:57.726Z,11.24
2018-04-13T22:33:28.734Z,11.19
2018-04-13T22:35:59.743Z,11.17
2018-04-13T22:38:30.740Z,11.16
2018-04-13T22:41:01.716Z,11.18
2018-04-13T22:43:32.723Z,11.19
2018-04-13T22:46:03.760Z,11.18
2018-04-13T22:48:34.774Z,11.15
2018-04-13T22:51:05.777Z,11.13
2018-04-13T22:53:36.779Z,11.11
2018-04-13T22:56:07.844Z,11.07
2018-04-13T22:58:38.898Z,11.03
2018-04-13T23:01:09.876Z,11.00
2018-04-13T23:03:40.917Z,10.95
2018-04-13T23:06:11.915Z,10.95
2018-04-13T23:08:42.928Z,10.94
2018-04-13T23:11:13.932Z,10.93
2018-04-13T23:13:44.942Z,10.90
2018-04-13T23:16:15.917Z,10.88
2018-04-13T23:18:46.947Z,10.86
2018-04-13T23:21:17.996Z,10.87
2018-04-13T23:23:48.998Z,10.88
2018-04-13T23:26:20.012Z,10.87
2018-04-13T23:28:51.018Z,10.83
2018-04-13T23:31:22.054Z,10.78
2018-04-13T23:33:53.024Z,10.71
2018-04-13T23:36:23.994Z,10.67
2018-04-13T23:38:54.999Z,10.66
2018-04-13T23:41:26.033Z,10.67
2018-04-13T23:43:57.034Z,10.66
2018-04-13T23:46:28.014Z,10.64
2018-04-13T23:48:59.028Z,10.61
2018-04-13T23:51:30.082Z,10.59
2018-04-13T23:54:01.110Z,10.56
2018-04-13T23:56:32.153Z,10.53
2018-04-13T23:59:03.200Z,10.51
